Time;durP1;ratioP1;P1;durP2;ratioP2;P2;SDS_P1;SDS_P2;PMS_P1;PMS_P2;Temp;Humidity;BMP_temperature;BMP_pressure;BME280_temperature;BME280_humidity;BME280_pressure;Samples;Min_cycle;Max_cycle;Signal;HPM_P1;HPM_P2
2023/11/23 00:02:01;;;;;;;20.80;14.80;;;8.70;99.90;;;;;;5072555;28;20161;-86
2023/11/23 00:04:27;;;;;;;21.73;15.27;;;8.60;99.90;;;;;;5059561;28;20259;-86
2023/11/23 00:06:53;;;;;;;27.07;16.47;;;8.60;99.90;;;;;;5057326;28;20251;-87
2023/11/23 00:09:19;;;;;;;22.37;15.33;;;8.60;99.90;;;;;;5058795;28;20584;-85
2023/11/23 00:11:45;;;;;;;22.93;16.33;;;8.60;99.90;;;;;;5060539;28;20226;-87
2023/11/23 00:14:10;;;;;;;19.00;14.97;;;8.50;99.90;;;;;;5067177;28;20169;-86
2023/11/23 00:16:37;;;;;;;22.80;16.03;;;8.50;99.90;;;;;;5060468;28;20510;-85
2023/11/23 00:19:03;;;;;;;22.43;16.00;;;8.60;99.90;;;;;;5058645;28;20209;-86
2023/11/23 00:21:30;;;;;;;23.23;16.10;;;8.60;99.90;;;;;;5063565;28;20296;-85
2023/11/23 00:23:56;;;;;;;28.53;16.33;;;8.70;99.90;;;;;;5056145;28;20257;-86
2023/11/23 00:26:23;;;;;;;25.03;16.70;;;8.80;99.90;;;;;;5057314;28;20169;-89
2023/11/23 00:28:49;;;;;;;24.73;17.17;;;8.80;99.90;;;;;;5059684;28;20211;-86
2023/11/23 00:31:15;;;;;;;25.17;16.57;;;8.60;99.90;;;;;;5072860;28;20172;-85
2023/11/23 00:33:41;;;;;;;26.53;16.37;;;8.70;99.90;;;;;;5073623;28;20176;-87
2023/11/23 00:36:07;;;;;;;22.67;16.23;;;8.60;99.90;;;;;;5073574;28;20651;-85
2023/11/23 00:38:34;;;;;;;24.07;16.23;;;8.60;99.90;;;;;;5067712;28;20213;-87
2023/11/23 00:41:00;;;;;;;22.20;15.67;;;8.70;99.90;;;;;;5053791;28;20188;-86
2023/11/23 00:43:26;;;;;;;24.03;16.50;;;8.60;99.90;;;;;;5053339;28;20640;-87
2023/11/23 00:45:53;;;;;;;20.17;14.97;;;8.80;99.90;;;;;;5037722;28;20181;-86
2023/11/23 00:48:18;;;;;;;25.03;16.30;;;8.70;99.90;;;;;;5053582;28;20180;-87
2023/11/23 00:50:45;;;;;;;25.70;15.90;;;8.80;99.90;;;;;;5053345;28;20656;-87
2023/11/23 00:53:10;;;;;;;23.60;17.13;;;8.80;99.90;;;;;;5053712;28;20173;-87
2023/11/23 00:55:36;;;;;;;21.53;15.10;;;8.90;99.90;;;;;;5053816;28;20192;-87
2023/11/23 00:58:02;;;;;;;24.73;16.57;;;8.90;99.90;;;;;;5053600;28;20209;-86
2023/11/23 01:00:28;;;;;;;24.47;16.63;;;8.90;99.90;;;;;;5054177;28;20200;-85
2023/11/23 01:02:54;;;;;;;23.93;17.40;;;8.90;99.90;;;;;;5053645;28;20173;-86
2023/11/23 01:05:20;;;;;;;24.97;17.30;;;8.90;99.90;;;;;;5054814;28;20552;-86
2023/11/23 01:07:46;;;;;;;23.10;15.90;;;8.90;99.90;;;;;;5053172;28;20540;-84
2023/11/23 01:10:11;;;;;;;25.40;16.00;;;8.90;99.90;;;;;;5072344;28;20183;-87
2023/11/23 01:12:37;;;;;;;21.13;14.83;;;8.90;99.90;;;;;;5074199;28;20271;-86
2023/11/23 01:15:03;;;;;;;26.60;15.97;;;8.90;99.90;;;;;;5072525;28;20183;-86
2023/11/23 01:17:28;;;;;;;25.50;16.50;;;9.00;99.90;;;;;;5072008;28;20697;-85
2023/11/23 01:19:54;;;;;;;26.60;16.13;;;9.00;99.90;;;;;;5073664;28;20204;-86
2023/11/23 01:22:20;;;;;;;25.70;16.20;;;9.10;99.90;;;;;;5073852;28;20172;-86
2023/11/23 01:24:45;;;;;;;20.93;15.37;;;9.10;99.90;;;;;;5082317;28;20183;-86
2023/11/23 01:27:13;;;;;;;24.23;15.77;;;9.00;99.90;;;;;;5091132;28;20176;-85
2023/11/23 01:29:42;;;;;;;22.07;15.93;;;9.00;99.90;;;;;;5083413;28;20236;-85
2023/11/23 01:32:09;;;;;;;23.80;16.90;;;8.90;99.90;;;;;;5075919;28;20195;-85
2023/11/23 01:34:35;;;;;;;21.73;15.17;;;9.00;99.90;;;;;;5072848;28;20175;-86
2023/11/23 01:37:00;;;;;;;21.13;16.03;;;8.90;99.90;;;;;;5072895;28;20184;-86
2023/11/23 01:39:26;;;;;;;22.93;16.37;;;9.10;99.90;;;;;;5072347;28;20184;-85
2023/11/23 01:41:51;;;;;;;23.17;15.97;;;9.10;99.90;;;;;;5072282;28;20255;-85
2023/11/23 01:44:19;;;;;;;24.47;15.70;;;9.20;99.90;;;;;;5072492;28;20180;-86
2023/11/23 01:46:45;;;;;;;20.43;16.43;;;9.20;99.90;;;;;;5071163;28;20175;-87
2023/11/23 01:49:11;;;;;;;24.83;15.70;;;9.20;99.90;;;;;;5071099;28;20206;-85
2023/11/23 01:51:37;;;;;;;20.97;15.80;;;9.20;99.90;;;;;;5072144;28;20272;-87
2023/11/23 01:54:03;;;;;;;22.77;16.57;;;9.10;99.90;;;;;;5072241;28;20196;-86
2023/11/23 01:56:30;;;;;;;22.37;15.37;;;9.20;99.90;;;;;;5072225;28;20704;-86
2023/11/23 01:58:56;;;;;;;25.53;16.20;;;9.30;99.90;;;;;;5072348;28;20216;-87
2023/11/23 02:01:22;;;;;;;22.00;15.67;;;9.20;99.90;;;;;;5072556;28;20207;-86
2023/11/23 02:03:48;;;;;;;21.63;15.40;;;9.30;99.90;;;;;;5072437;28;20651;-87
2023/11/23 02:06:14;;;;;;;21.17;15.60;;;9.50;99.90;;;;;;5073278;28;20172;-86
2023/11/23 02:08:40;;;;;;;26.03;17.07;;;9.40;99.90;;;;;;5071505;28;20172;-86
2023/11/23 02:11:06;;;;;;;22.43;15.63;;;9.30;99.90;;;;;;5075974;28;20814;-86
2023/11/23 02:13:33;;;;;;;22.43;15.70;;;9.20;99.90;;;;;;5075602;28;20596;-86
2023/11/23 02:15:59;;;;;;;23.33;16.10;;;9.20;99.90;;;;;;5075774;28;20232;-86
2023/11/23 02:18:25;;;;;;;24.43;15.83;;;9.30;99.90;;;;;;5080927;28;20212;-86
2023/11/23 02:20:51;;;;;;;21.80;16.07;;;9.20;99.90;;;;;;5091170;28;20193;-85
2023/11/23 02:23:17;;;;;;;22.37;15.63;;;9.20;99.90;;;;;;5072748;28;20177;-85
2023/11/23 02:25:45;;;;;;;21.93;15.80;;;9.20;99.90;;;;;;5072406;28;20176;-86
2023/11/23 02:28:10;;;;;;;20.93;15.77;;;9.20;99.90;;;;;;5071707;28;20172;-86
2023/11/23 02:30:36;;;;;;;18.50;14.17;;;9.30;99.90;;;;;;5089944;28;20172;-85
2023/11/23 02:33:03;;;;;;;25.00;16.17;;;9.30;99.90;;;;;;5094575;28;20229;-85
2023/11/23 02:35:29;;;;;;;21.03;15.60;;;9.20;99.90;;;;;;5096377;28;20164;-84
2023/11/23 02:37:56;;;;;;;20.83;16.43;;;9.30;99.90;;;;;;5095574;28;20215;-85
2023/11/23 02:40:21;;;;;;;23.60;15.77;;;9.30;99.90;;;;;;5097894;28;20164;-82
2023/11/23 02:42:47;;;;;;;21.97;16.13;;;9.40;99.90;;;;;;5097995;28;20264;-82
2023/11/23 02:45:13;;;;;;;21.23;15.87;;;9.20;99.90;;;;;;5077838;28;20183;-86
2023/11/23 02:47:38;;;;;;;20.77;15.63;;;9.20;99.90;;;;;;5077579;28;20248;-86
2023/11/23 02:50:04;;;;;;;24.30;16.80;;;9.20;99.90;;;;;;5083716;28;20153;-85
2023/11/23 02:52:32;;;;;;;22.90;17.30;;;9.30;99.90;;;;;;5084782;28;20176;-87
2023/11/23 02:54:57;;;;;;;21.77;16.47;;;9.50;99.90;;;;;;5075466;28;20644;-86
2023/11/23 02:57:24;;;;;;;22.80;16.47;;;9.60;99.90;;;;;;5076826;28;20184;-86
2023/11/23 02:59:50;;;;;;;20.40;15.93;;;9.50;99.90;;;;;;5075306;28;20168;-86
2023/11/23 03:02:16;;;;;;;26.43;17.20;;;9.50;99.90;;;;;;5074403;28;20507;-86
2023/11/23 03:04:41;;;;;;;22.50;16.77;;;9.80;99.90;;;;;;5076589;28;20160;-85
2023/11/23 03:07:08;;;;;;;22.17;16.80;;;9.70;99.90;;;;;;5076311;28;20173;-85
2023/11/23 03:09:34;;;;;;;23.20;17.13;;;9.90;99.90;;;;;;5074646;28;20173;-86
2023/11/23 03:12:01;;;;;;;25.67;17.13;;;9.70;99.90;;;;;;5073997;28;20164;-85
2023/11/23 03:14:26;;;;;;;20.73;16.37;;;9.80;99.90;;;;;;5074590;28;20176;-86
2023/11/23 03:16:53;;;;;;;23.33;16.53;;;9.80;99.90;;;;;;5069746;28;20231;-86
2023/11/23 03:19:18;;;;;;;21.80;16.07;;;9.80;99.90;;;;;;5053811;28;20215;-85
2023/11/23 03:21:45;;;;;;;25.03;17.43;;;10.00;99.90;;;;;;5055159;28;20169;-86
2023/11/23 03:24:11;;;;;;;21.20;16.67;;;9.90;99.90;;;;;;5066564;28;20180;-85
2023/11/23 03:26:37;;;;;;;21.43;16.73;;;9.80;99.90;;;;;;5065174;28;20177;-86
2023/11/23 03:29:03;;;;;;;21.10;16.53;;;9.80;99.90;;;;;;5056744;28;20183;-85
2023/11/23 03:31:28;;;;;;;20.00;16.30;;;9.70;99.90;;;;;;5054103;28;20201;-86
2023/11/23 03:33:54;;;;;;;23.07;16.90;;;9.90;99.90;;;;;;5053393;28;20215;-86
2023/11/23 03:36:20;;;;;;;21.67;16.50;;;9.80;99.90;;;;;;5053939;28;20306;-85
2023/11/23 03:38:46;;;;;;;22.67;17.07;;;9.70;99.90;;;;;;5054930;28;20208;-84
2023/11/23 03:41:12;;;;;;;26.77;17.77;;;9.70;99.90;;;;;;5053599;28;20538;-86
2023/11/23 03:43:38;;;;;;;21.87;17.33;;;9.80;99.90;;;;;;5053906;28;20173;-87
2023/11/23 03:46:03;;;;;;;24.37;17.80;;;9.80;99.90;;;;;;5054110;28;20176;-86
2023/11/23 03:48:29;;;;;;;24.47;18.97;;;9.90;99.90;;;;;;5052403;28;20234;-86
2023/11/23 03:50:55;;;;;;;25.93;17.33;;;9.80;99.90;;;;;;5053813;28;20234;-86
2023/11/23 03:53:20;;;;;;;23.20;16.77;;;9.70;99.90;;;;;;5058837;28;20183;-88
2023/11/23 03:55:46;;;;;;;23.13;17.53;;;9.80;99.90;;;;;;5060946;28;20180;-87
2023/11/23 03:58:12;;;;;;;21.93;18.10;;;9.80;99.90;;;;;;5058340;28;20200;-87
2023/11/23 04:00:38;;;;;;;24.70;17.87;;;9.70;99.90;;;;;;5054173;28;20212;-86
2023/11/23 04:03:05;;;;;;;22.63;17.53;;;9.60;99.90;;;;;;5053818;28;20173;-87
2023/11/23 04:05:31;;;;;;;25.23;17.80;;;9.70;99.90;;;;;;5052552;28;20180;-86
2023/11/23 04:07:56;;;;;;;26.13;17.97;;;9.60;99.90;;;;;;5053704;28;20701;-86
2023/11/23 04:10:22;;;;;;;26.87;17.80;;;9.70;99.90;;;;;;5053522;28;20173;-86
2023/11/23 04:12:47;;;;;;;29.27;19.00;;;9.70;99.90;;;;;;5053727;28;20605;-87
2023/11/23 04:15:13;;;;;;;26.00;18.83;;;9.70;99.90;;;;;;5054402;28;20201;-86
2023/11/23 04:17:39;;;;;;;25.73;17.93;;;9.70;99.90;;;;;;5059406;28;20208;-84
2023/11/23 04:20:05;;;;;;;28.43;18.50;;;9.70;99.90;;;;;;5072916;28;20718;-86
2023/11/23 04:22:31;;;;;;;25.40;19.17;;;9.70;99.90;;;;;;5054159;28;20184;-87
2023/11/23 04:24:59;;;;;;;27.83;18.23;;;9.80;99.90;;;;;;5053498;28;20173;-86
2023/11/23 04:27:24;;;;;;;24.53;18.67;;;9.90;99.90;;;;;;5054191;28;20172;-86
2023/11/23 04:29:50;;;;;;;27.07;19.20;;;9.80;99.90;;;;;;5053001;28;20246;-87
2023/11/23 04:32:16;;;;;;;25.70;18.90;;;9.90;99.90;;;;;;5056717;28;20260;-85
2023/11/23 04:34:42;;;;;;;26.13;19.10;;;9.70;99.90;;;;;;5055712;28;20208;-86
2023/11/23 04:37:08;;;;;;;30.13;19.37;;;10.00;99.90;;;;;;5054474;28;20208;-86
2023/11/23 04:39:34;;;;;;;29.10;17.80;;;9.80;99.90;;;;;;5056166;28;20181;-86
2023/11/23 04:42:00;;;;;;;27.43;18.10;;;9.70;99.90;;;;;;5054921;28;20173;-85
2023/11/23 04:44:25;;;;;;;25.40;18.23;;;9.70;99.90;;;;;;5054974;28;20187;-85
2023/11/23 04:46:51;;;;;;;27.57;17.67;;;9.70;99.90;;;;;;5052681;28;20169;-87
2023/11/23 04:49:17;;;;;;;25.80;16.40;;;9.70;99.90;;;;;;5052182;28;20169;-85
2023/11/23 04:51:43;;;;;;;23.20;17.83;;;9.60;99.90;;;;;;5053051;28;20173;-87
2023/11/23 04:54:09;;;;;;;29.37;18.30;;;9.70;99.90;;;;;;5052751;28;20633;-87
2023/11/23 04:56:36;;;;;;;26.37;18.40;;;9.70;99.90;;;;;;5052381;28;20192;-87
2023/11/23 04:59:04;;;;;;;27.23;18.30;;;9.80;99.90;;;;;;5052710;28;20665;-86
2023/11/23 05:01:30;;;;;;;23.03;17.90;;;9.80;99.90;;;;;;5051581;28;20172;-85
2023/11/23 05:03:55;;;;;;;29.53;17.97;;;9.90;99.90;;;;;;5052439;28;20184;-86
2023/11/23 05:06:22;;;;;;;23.50;16.80;;;10.00;99.90;;;;;;5051925;28;20193;-87
2023/11/23 05:08:47;;;;;;;25.20;17.20;;;10.00;99.90;;;;;;5052531;28;20180;-86
2023/11/23 05:11:13;;;;;;;20.77;15.30;;;10.00;99.90;;;;;;5052791;28;20177;-85
2023/11/23 05:13:39;;;;;;;27.33;17.83;;;10.10;99.90;;;;;;5052237;28;20192;-88
2023/11/23 05:16:06;;;;;;;27.77;16.83;;;10.00;99.90;;;;;;5051949;28;20191;-87
2023/11/23 05:18:33;;;;;;;25.23;16.60;;;10.00;99.90;;;;;;5055638;28;20205;-87
2023/11/23 05:20:59;;;;;;;23.73;16.80;;;10.10;99.90;;;;;;5061556;28;20200;-86
2023/11/23 05:23:24;;;;;;;23.70;17.03;;;10.10;99.90;;;;;;5058870;28;20181;-85
2023/11/23 05:25:50;;;;;;;24.27;15.77;;;10.10;99.90;;;;;;5052536;28;20177;-87
2023/11/23 05:28:16;;;;;;;21.53;15.63;;;10.10;99.90;;;;;;5051858;28;20204;-86
2023/11/23 05:30:42;;;;;;;23.57;16.97;;;10.20;99.90;;;;;;5051374;28;20621;-85
2023/11/23 05:33:08;;;;;;;22.67;16.03;;;10.10;99.90;;;;;;5052397;28;20265;-85
2023/11/23 05:35:34;;;;;;;21.80;15.47;;;10.20;99.90;;;;;;5051213;28;20611;-85
2023/11/23 05:38:01;;;;;;;18.37;15.50;;;10.20;99.90;;;;;;5053073;28;20213;-87
2023/11/23 05:40:26;;;;;;;22.40;16.03;;;10.10;99.90;;;;;;5052661;28;20238;-87
2023/11/23 05:42:52;;;;;;;23.07;15.67;;;10.20;99.90;;;;;;5052109;28;20180;-87
2023/11/23 05:45:19;;;;;;;22.10;15.80;;;10.20;99.90;;;;;;5051174;28;20865;-87
2023/11/23 05:47:45;;;;;;;22.63;15.37;;;10.20;99.90;;;;;;5052249;28;20173;-88
2023/11/23 05:50:11;;;;;;;26.27;16.07;;;10.20;99.90;;;;;;5052197;28;20184;-88
2023/11/23 05:52:37;;;;;;;22.43;14.97;;;10.20;99.90;;;;;;5052933;28;20165;-86
2023/11/23 05:55:03;;;;;;;20.47;14.63;;;10.20;99.90;;;;;;5051688;28;20226;-86
2023/11/23 05:57:29;;;;;;;20.60;15.07;;;10.30;99.90;;;;;;5051369;28;20201;-86
2023/11/23 05:59:54;;;;;;;25.80;15.70;;;10.30;99.90;;;;;;5051811;28;20173;-87
2023/11/23 06:02:21;;;;;;;17.67;13.43;;;10.30;99.90;;;;;;5035307;28;20327;-86
2023/11/23 06:04:47;;;;;;;19.23;14.07;;;10.10;99.90;;;;;;5051288;28;20171;-86
2023/11/23 06:07:13;;;;;;;22.67;14.50;;;10.10;99.90;;;;;;5052480;28;20546;-86
2023/11/23 06:09:39;;;;;;;20.83;13.13;;;10.10;99.90;;;;;;5056184;28;20272;-87
2023/11/23 06:12:05;;;;;;;17.67;13.97;;;10.10;99.90;;;;;;5077588;28;20176;-85
2023/11/23 06:14:31;;;;;;;18.00;13.33;;;10.20;99.90;;;;;;5080078;28;20188;-85
2023/11/23 06:16:57;;;;;;;19.83;13.67;;;10.10;99.90;;;;;;5096183;28;20175;-85
2023/11/23 06:19:24;;;;;;;19.03;13.00;;;10.20;99.90;;;;;;5090830;28;20672;-85
2023/11/23 06:21:50;;;;;;;19.47;13.33;;;10.20;99.90;;;;;;5078305;28;20280;-86
2023/11/23 06:24:17;;;;;;;19.10;13.60;;;10.40;99.90;;;;;;5082394;28;20530;-85
2023/11/23 06:26:43;;;;;;;17.30;12.17;;;10.20;99.90;;;;;;5080810;28;20232;-86
2023/11/23 06:29:09;;;;;;;20.83;13.07;;;10.20;99.90;;;;;;5075967;28;20175;-86
2023/11/23 06:31:35;;;;;;;20.77;12.80;;;10.10;99.90;;;;;;5075518;28;20633;-86
2023/11/23 06:34:00;;;;;;;18.80;13.80;;;10.20;99.90;;;;;;5077352;28;20169;-86
2023/11/23 06:36:26;;;;;;;17.80;12.50;;;10.20;99.90;;;;;;5074968;28;20625;-87
2023/11/23 06:38:52;;;;;;;17.70;12.47;;;10.20;99.90;;;;;;5062585;28;20704;-88
2023/11/23 06:41:19;;;;;;;16.23;12.30;;;10.10;99.90;;;;;;5054678;28;20173;-88
2023/11/23 06:43:50;;;;;;;16.23;12.17;;;10.20;99.90;;;;;;5054213;28;20291;-86
2023/11/23 06:46:20;;;;;;;20.30;12.50;;;10.20;99.90;;;;;;5054479;28;20252;-83
2023/11/23 06:48:46;;;;;;;17.87;12.53;;;10.20;99.90;;;;;;5054232;28;20177;-83
2023/11/23 06:51:13;;;;;;;15.47;11.87;;;10.30;99.90;;;;;;5053662;28;20701;-87
2023/11/23 06:53:46;;;;;;;20.90;12.70;;;10.30;99.90;;;;;;5054724;28;20314;-87
2023/11/23 06:56:16;;;;;;;19.00;12.37;;;10.30;99.90;;;;;;5055412;28;20249;-85
2023/11/23 06:58:42;;;;;;;19.30;12.57;;;10.40;99.90;;;;;;5055845;28;20692;-85
2023/11/23 07:01:09;;;;;;;16.87;12.10;;;10.40;99.90;;;;;;5055216;28;20641;-84
2023/11/23 07:03:38;;;;;;;19.73;12.37;;;10.40;99.90;;;;;;5059687;28;20204;-89
2023/11/23 07:06:05;;;;;;;14.40;11.43;;;10.60;99.90;;;;;;5054872;28;20173;-87
2023/11/23 07:08:36;;;;;;;18.80;11.63;;;10.50;99.90;;;;;;5054315;28;20169;-90
2023/11/23 07:11:04;;;;;;;17.60;12.20;;;10.50;99.90;;;;;;5053809;28;20679;-88
2023/11/23 07:13:31;;;;;;;17.83;12.83;;;10.50;99.90;;;;;;5056157;28;20180;-88
2023/11/23 07:15:59;;;;;;;16.37;11.50;;;10.40;99.90;;;;;;5061037;28;20173;-86
2023/11/23 07:18:28;;;;;;;18.90;11.47;;;10.50;99.90;;;;;;5060703;28;20205;-85
2023/11/23 07:20:55;;;;;;;18.47;11.73;;;10.50;99.90;;;;;;5054088;28;20211;-86
2023/11/23 07:23:21;;;;;;;16.63;11.57;;;10.50;99.90;;;;;;5054328;28;20657;-88
2023/11/23 07:25:47;;;;;;;16.53;11.90;;;10.50;99.90;;;;;;5053797;28;20175;-85
2023/11/23 07:28:13;;;;;;;14.87;11.37;;;10.60;99.90;;;;;;5052857;28;20177;-85
2023/11/23 07:30:40;;;;;;;15.33;11.43;;;10.70;99.90;;;;;;5054371;28;20281;-85
2023/11/23 07:33:07;;;;;;;14.13;10.90;;;10.80;99.90;;;;;;5054161;28;20191;-85
2023/11/23 07:35:33;;;;;;;16.00;10.60;;;10.70;99.90;;;;;;5053707;28;20165;-84
2023/11/23 07:38:00;;;;;;;16.60;11.47;;;10.70;99.90;;;;;;5054702;28;20204;-85
2023/11/23 07:40:26;;;;;;;18.33;11.13;;;10.80;99.90;;;;;;5055964;28;20177;-86
2023/11/23 07:42:52;;;;;;;14.27;10.60;;;10.80;99.90;;;;;;5054136;28;20272;-86
2023/11/23 07:45:17;;;;;;;13.63;10.47;;;10.80;99.90;;;;;;5053947;28;20172;-86
2023/11/23 07:47:43;;;;;;;15.30;10.07;;;10.70;99.90;;;;;;5059127;28;20209;-84
2023/11/23 07:50:16;;;;;;;12.57;9.80;;;10.80;99.90;;;;;;5056445;28;20174;-86
2023/11/23 07:52:45;;;;;;;14.27;9.73;;;10.70;99.90;;;;;;5054304;28;20173;-88
2023/11/23 07:55:12;;;;;;;12.30;8.83;;;10.80;99.90;;;;;;5053532;28;20196;-84
2023/11/23 07:57:38;;;;;;;13.63;9.63;;;10.90;99.90;;;;;;5071114;28;20223;-85
2023/11/23 08:00:07;;;;;;;13.17;9.67;;;11.10;99.90;;;;;;5072491;28;20181;-85
2023/11/23 08:02:33;;;;;;;15.73;10.37;;;10.90;99.90;;;;;;5073281;28;20173;-85
2023/11/23 08:04:59;;;;;;;14.70;9.43;;;11.10;99.90;;;;;;5074079;28;20172;-85
2023/11/23 08:07:25;;;;;;;16.53;9.57;;;11.00;99.90;;;;;;5074754;28;20263;-85
2023/11/23 08:09:51;;;;;;;11.43;8.50;;;10.90;99.90;;;;;;5072540;28;20534;-84
2023/11/23 08:12:18;;;;;;;14.30;8.90;;;11.00;99.90;;;;;;5072836;28;20177;-87
2023/11/23 08:14:44;;;;;;;10.80;8.30;;;11.00;99.90;;;;;;5073129;28;20176;-86
2023/11/23 08:17:11;;;;;;;12.17;8.27;;;11.00;99.90;;;;;;5079750;28;20185;-86
2023/11/23 08:19:37;;;;;;;14.57;8.80;;;11.00;99.90;;;;;;5081976;28;20212;-85
2023/11/23 08:22:07;;;;;;;15.17;8.63;;;10.90;99.90;;;;;;5072788;28;20166;-85
2023/11/23 08:24:32;;;;;;;11.93;8.30;;;11.00;99.90;;;;;;5072911;28;20272;-85
2023/11/23 08:26:58;;;;;;;13.77;8.30;;;11.00;99.90;;;;;;5075630;28;20619;-85
2023/11/23 08:29:24;;;;;;;11.60;7.80;;;11.20;99.90;;;;;;5073303;28;20651;-84
2023/11/23 08:31:51;;;;;;;14.03;8.60;;;11.10;99.90;;;;;;5073746;28;20624;-86
2023/11/23 08:34:16;;;;;;;17.30;8.80;;;11.00;99.90;;;;;;5073889;28;20298;-85
2023/11/23 08:36:43;;;;;;;10.37;7.20;;;11.00;99.90;;;;;;5072710;28;20656;-84
2023/11/23 08:39:12;;;;;;;12.80;7.73;;;11.10;99.90;;;;;;5073792;28;20235;-85
2023/11/23 08:41:41;;;;;;;14.97;7.03;;;11.10;99.90;;;;;;5073959;28;20544;-84
2023/11/23 08:44:08;;;;;;;13.70;7.43;;;11.30;99.90;;;;;;5074117;28;20245;-84
2023/11/23 08:46:39;;;;;;;11.27;7.33;;;11.20;99.90;;;;;;5073111;28;20180;-84
2023/11/23 08:49:05;;;;;;;11.37;7.13;;;11.20;99.90;;;;;;5075664;28;20188;-87
2023/11/23 08:51:31;;;;;;;12.30;7.57;;;11.20;99.90;;;;;;5075982;28;20170;-84
2023/11/23 08:53:56;;;;;;;12.03;6.90;;;11.20;99.90;;;;;;5073396;28;20186;-87
2023/11/23 08:56:22;;;;;;;10.40;6.90;;;11.20;99.90;;;;;;5072603;28;20219;-85
2023/11/23 08:58:48;;;;;;;10.37;7.03;;;11.30;99.90;;;;;;5073272;28;20214;-86
2023/11/23 09:01:15;;;;;;;13.43;7.13;;;11.20;99.90;;;;;;5056983;28;20276;-85
2023/11/23 09:03:41;;;;;;;13.67;6.67;;;11.20;99.90;;;;;;5051490;28;20207;-86
2023/11/23 09:06:10;;;;;;;12.93;7.70;;;11.20;99.90;;;;;;5035019;28;20181;-85
2023/11/23 09:08:35;;;;;;;9.67;6.90;;;11.30;99.90;;;;;;5032943;28;20192;-85
2023/11/23 09:11:01;;;;;;;12.37;7.60;;;11.30;99.90;;;;;;5036061;28;20340;-85
2023/11/23 09:13:27;;;;;;;12.43;6.80;;;11.40;99.90;;;;;;5034182;28;20182;-86
2023/11/23 09:15:56;;;;;;;11.83;7.13;;;11.40;99.90;;;;;;5033554;28;20266;-86
2023/11/23 09:18:22;;;;;;;11.67;6.73;;;11.30;99.90;;;;;;5032075;28;20213;-84
2023/11/23 09:20:48;;;;;;;12.57;6.60;;;11.30;99.90;;;;;;5033399;28;20193;-87
2023/11/23 09:23:15;;;;;;;12.53;7.50;;;11.50;99.90;;;;;;5036564;28;20228;-86
2023/11/23 09:25:40;;;;;;;12.03;7.43;;;11.50;99.90;;;;;;5035991;28;20171;-86
2023/11/23 09:28:09;;;;;;;11.93;6.80;;;11.40;99.90;;;;;;5035355;28;20676;-86
2023/11/23 09:30:35;;;;;;;11.83;6.93;;;11.30;99.90;;;;;;5032799;28;20176;-84
2023/11/23 09:33:01;;;;;;;9.40;6.13;;;11.40;99.90;;;;;;5033249;28;20169;-85
2023/11/23 09:35:27;;;;;;;10.40;6.30;;;11.40;99.90;;;;;;5032809;28;20227;-85
2023/11/23 09:37:53;;;;;;;9.07;6.53;;;11.50;99.90;;;;;;5032463;28;20296;-84
2023/11/23 09:40:19;;;;;;;12.67;6.40;;;11.50;99.90;;;;;;5034550;28;20208;-86
2023/11/23 09:42:48;;;;;;;11.87;6.07;;;11.50;99.90;;;;;;5044816;28;20182;-85
2023/11/23 09:45:20;;;;;;;11.40;6.33;;;11.50;99.90;;;;;;5046262;28;20178;-82
2023/11/23 09:47:49;;;;;;;10.60;6.27;;;11.40;99.90;;;;;;5043149;28;20189;-84
2023/11/23 09:50:16;;;;;;;8.27;5.40;;;11.40;99.90;;;;;;5048700;28;20166;-83
2023/11/23 09:52:43;;;;;;;10.20;6.63;;;11.60;99.90;;;;;;5055009;28;20178;-82
2023/11/23 09:55:10;;;;;;;8.97;5.73;;;11.70;99.90;;;;;;5048253;28;20193;-84
2023/11/23 09:57:36;;;;;;;10.97;5.47;;;11.60;99.90;;;;;;5041470;28;20163;-83
2023/11/23 10:00:09;;;;;;;9.90;5.57;;;11.80;99.90;;;;;;5041032;28;20587;-85
2023/11/23 10:02:36;;;;;;;8.63;5.60;;;11.80;99.90;;;;;;5040596;28;20170;-84
2023/11/23 10:05:16;;;;;;;11.13;5.57;;;11.70;99.90;;;;;;5038143;28;20186;-84
2023/11/23 10:07:43;;;;;;;8.17;5.67;;;11.80;99.90;;;;;;5038528;28;20181;-87
2023/11/23 10:10:10;;;;;;;6.47;4.43;;;11.70;99.90;;;;;;5037188;28;20304;-85
2023/11/23 10:12:36;;;;;;;8.83;4.90;;;11.90;99.90;;;;;;5037485;28;20178;-85
2023/11/23 10:15:10;;;;;;;10.30;4.67;;;12.00;99.90;;;;;;5048847;28;20173;-85
2023/11/23 10:17:36;;;;;;;7.50;5.10;;;11.90;99.90;;;;;;5047375;28;20537;-86
2023/11/23 10:20:13;;;;;;;11.20;4.77;;;12.00;99.90;;;;;;5035938;28;20204;-86
2023/11/23 10:22:48;;;;;;;11.27;5.00;;;11.90;99.90;;;;;;5035432;28;20229;-86
2023/11/23 10:25:24;;;;;;;9.07;5.13;;;12.00;99.90;;;;;;5035770;28;20628;-85
2023/11/23 10:27:50;;;;;;;7.90;4.63;;;12.10;99.90;;;;;;5034785;28;20214;-85
2023/11/23 10:30:16;;;;;;;9.70;4.80;;;12.10;99.90;;;;;;5035481;28;20175;-86
2023/11/23 10:32:43;;;;;;;12.53;4.83;;;12.10;99.90;;;;;;5034704;28;20588;-86
2023/11/23 10:35:11;;;;;;;12.10;4.90;;;12.20;99.90;;;;;;5036187;28;20177;-86
2023/11/23 10:37:39;;;;;;;8.37;4.70;;;12.20;99.90;;;;;;5034665;28;20236;-86
2023/11/23 10:40:09;;;;;;;8.97;4.70;;;12.30;99.90;;;;;;5035318;28;20638;-85
2023/11/23 10:42:35;;;;;;;9.63;4.97;;;12.30;99.90;;;;;;5037581;28;20174;-86
2023/11/23 10:45:02;;;;;;;10.63;4.73;;;12.30;99.90;;;;;;5055596;28;20185;-86
2023/11/23 10:47:29;;;;;;;8.13;3.93;;;12.20;99.90;;;;;;5054728;28;20181;-85
2023/11/23 10:49:57;;;;;;;12.80;4.20;;;12.20;99.90;;;;;;5054638;28;20194;-84
2023/11/23 10:52:24;;;;;;;8.60;3.93;;;12.30;99.90;;;;;;5055193;28;20170;-86
2023/11/23 10:54:49;;;;;;;10.40;4.20;;;12.20;99.90;;;;;;5055898;28;20253;-88
2023/11/23 10:57:17;;;;;;;6.67;3.83;;;12.20;99.90;;;;;;5056931;28;20201;-87
2023/11/23 10:59:45;;;;;;;7.70;4.20;;;12.20;99.90;;;;;;5053885;28;20207;-87
2023/11/23 11:02:12;;;;;;;7.30;4.77;;;12.20;99.90;;;;;;5054247;28;20169;-87
2023/11/23 11:04:39;;;;;;;6.87;4.10;;;12.30;99.90;;;;;;5060142;28;20181;-85
2023/11/23 11:07:08;;;;;;;8.23;4.20;;;12.30;99.90;;;;;;5061181;28;20175;-86
2023/11/23 11:09:34;;;;;;;7.90;4.23;;;12.30;99.90;;;;;;5057115;28;20210;-87
2023/11/23 11:12:03;;;;;;;9.30;4.47;;;12.40;99.90;;;;;;5061686;28;20265;-87
2023/11/23 11:14:36;;;;;;;8.07;3.90;;;12.40;99.90;;;;;;5055260;28;20195;-87
2023/11/23 11:17:04;;;;;;;7.60;3.63;;;12.50;99.90;;;;;;5054325;28;20202;-86
2023/11/23 11:19:47;;;;;;;7.17;4.00;;;12.50;99.90;;;;;;5054003;28;20580;-86
2023/11/23 11:22:14;;;;;;;6.93;3.80;;;12.50;99.90;;;;;;5054263;28;20174;-86
2023/11/23 11:24:40;;;;;;;6.97;3.83;;;12.60;99.90;;;;;;5054143;28;20180;-86
2023/11/23 11:27:10;;;;;;;7.47;3.60;;;12.60;99.90;;;;;;5054379;28;20259;-86
2023/11/23 11:29:36;;;;;;;7.17;4.30;;;12.60;99.90;;;;;;5055781;28;20662;-85
2023/11/23 11:32:07;;;;;;;5.70;3.60;;;12.60;99.90;;;;;;5055691;28;20195;-84
2023/11/23 11:34:36;;;;;;;8.30;3.97;;;12.60;99.90;;;;;;5054737;28;20270;-86
2023/11/23 11:37:03;;;;;;;10.80;4.80;;;12.70;99.90;;;;;;5055288;28;20189;-85
2023/11/23 11:39:36;;;;;;;9.60;3.50;;;12.70;99.90;;;;;;5055231;28;20209;-88
2023/11/23 11:42:13;;;;;;;10.57;4.40;;;12.70;99.90;;;;;;5054806;28;20261;-86
2023/11/23 11:44:45;;;;;;;10.17;4.20;;;12.80;99.90;;;;;;5051447;28;20312;-86
2023/11/23 11:47:12;;;;;;;7.93;3.90;;;12.80;99.90;;;;;;5053755;28;20167;-85
2023/11/23 11:49:38;;;;;;;11.43;4.10;;;12.90;99.90;;;;;;5054265;28;20268;-86
2023/11/23 11:52:08;;;;;;;13.40;3.90;;;12.90;99.90;;;;;;5054607;28;20165;-87
2023/11/23 11:54:38;;;;;;;7.10;3.80;;;13.00;99.90;;;;;;5055832;28;20165;-84
2023/11/23 11:57:04;;;;;;;7.13;3.20;;;13.00;99.90;;;;;;5053732;28;20193;-86
2023/11/23 11:59:30;;;;;;;8.07;3.27;;;13.00;99.90;;;;;;5054613;28;20212;-87
2023/11/23 12:01:56;;;;;;;9.27;4.17;;;13.00;99.90;;;;;;5055307;28;20211;-86
2023/11/23 12:04:23;;;;;;;6.53;3.37;;;13.00;99.90;;;;;;5054733;28;20267;-85
2023/11/23 12:06:49;;;;;;;9.50;3.70;;;13.00;99.90;;;;;;5054232;28;20180;-85
2023/11/23 12:09:19;;;;;;;8.53;3.50;;;13.10;99.90;;;;;;5059830;28;20176;-84
2023/11/23 12:11:49;;;;;;;6.93;3.10;;;13.10;99.90;;;;;;5063529;28;20180;-87
2023/11/23 12:14:15;;;;;;;9.93;3.57;;;13.10;99.90;;;;;;5058508;28;20592;-87
2023/11/23 12:16:41;;;;;;;7.23;3.20;;;13.10;99.90;;;;;;5055124;28;20165;-84
2023/11/23 12:19:17;;;;;;;7.47;3.30;;;13.10;99.90;;;;;;5055240;28;20209;-85
2023/11/23 12:21:56;;;;;;;6.93;3.20;;;13.10;99.90;;;;;;5056544;28;20193;-86
2023/11/23 12:24:26;;;;;;;6.87;3.20;;;13.00;99.90;;;;;;5056013;28;20185;-86
2023/11/23 12:26:52;;;;;;;6.20;2.77;;;13.00;99.90;;;;;;5053518;28;20272;-86
2023/11/23 12:29:26;;;;;;;5.53;2.83;;;13.20;99.90;;;;;;5052588;28;20186;-86
2023/11/23 12:31:52;;;;;;;7.10;3.30;;;13.10;99.90;;;;;;5059806;28;20172;-84
2023/11/23 12:34:20;;;;;;;5.17;2.80;;;13.00;99.90;;;;;;5057045;28;20210;-87